createdAt,value
2019-03-17T10:16:16.830Z,9.41
2019-03-17T10:18:45.062Z,9.32
2019-03-17T10:21:13.531Z,9.27
2019-03-17T10:23:41.751Z,9.32
2019-03-17T10:26:09.976Z,9.30
2019-03-17T10:28:38.214Z,9.26
2019-03-17T10:31:06.442Z,9.24
2019-03-17T10:33:34.895Z,9.20
2019-03-17T10:36:03.127Z,9.24
2019-03-17T10:38:31.355Z,9.27
2019-03-17T10:40:59.574Z,9.27
2019-03-17T10:43:28.034Z,9.31
2019-03-17T10:45:56.495Z,9.33
2019-03-17T10:48:24.735Z,9.36
2019-03-17T10:50:52.953Z,9.35
2019-03-17T10:53:21.178Z,9.36
2019-03-17T10:55:49.546Z,9.39
2019-03-17T10:58:17.770Z,9.36
2019-03-17T11:00:46.012Z,9.38
2019-03-17T11:03:14.227Z,9.41
2019-03-17T11:05:42.685Z,9.41
2019-03-17T11:08:10.909Z,9.35
2019-03-17T11:10:39.143Z,9.05
2019-03-17T11:13:07.600Z,8.44
2019-03-17T11:15:35.829Z,7.87
2019-03-17T11:18:04.057Z,7.45
2019-03-17T11:20:32.523Z,7.02
2019-03-17T11:23:01.030Z,6.74
2019-03-17T11:25:29.286Z,6.55
2019-03-17T11:27:57.494Z,6.33
2019-03-17T11:30:26.075Z,6.18
2019-03-17T11:32:54.339Z,6.06
2019-03-17T11:35:22.790Z,5.97
2019-03-17T11:37:51.316Z,5.92
2019-03-17T11:40:20.322Z,5.92
2019-03-17T11:42:50.140Z,5.90
2019-03-17T11:45:19.214Z,5.87
2019-03-17T11:47:47.614Z,5.90
2019-03-17T11:50:16.755Z,5.93
2019-03-17T11:52:45.159Z,5.97
2019-03-17T11:55:13.860Z,6.04
2019-03-17T11:57:42.321Z,6.07
2019-03-17T12:00:24.086Z,6.08
2019-03-17T12:02:52.618Z,6.13
2019-03-17T12:05:20.864Z,6.16
2019-03-17T12:07:49.096Z,6.17
2019-03-17T12:10:22.481Z,6.17
2019-03-17T12:12:50.729Z,6.16
2019-03-17T12:15:33.008Z,6.18
2019-03-17T12:18:01.280Z,6.17
2019-03-17T12:20:29.502Z,6.16
2019-03-17T12:22:57.736Z,6.15
2019-03-17T12:25:26.202Z,6.15
2019-03-17T12:27:54.662Z,6.17
2019-03-17T12:30:27.949Z,6.20
2019-03-17T12:32:56.857Z,6.19
2019-03-17T12:35:25.156Z,6.18
2019-03-17T12:37:53.390Z,6.21
2019-03-17T12:40:21.619Z,6.21
2019-03-17T12:42:49.851Z,6.26
2019-03-17T12:45:18.255Z,6.29
2019-03-17T12:47:46.800Z,6.34
2019-03-17T12:50:25.636Z,6.39
2019-03-17T12:52:53.922Z,6.46
2019-03-17T12:55:22.486Z,6.49
2019-03-17T12:57:50.968Z,6.56
2019-03-17T13:00:24.287Z,6.58
2019-03-17T13:02:52.561Z,6.60
2019-03-17T13:05:21.134Z,6.58
2019-03-17T13:07:49.391Z,6.64
2019-03-17T13:10:19.733Z,6.68
2019-03-17T13:12:48.211Z,6.74
2019-03-17T13:15:16.793Z,6.81
2019-03-17T13:17:45.028Z,6.90
2019-03-17T13:20:16.193Z,6.99
2019-03-17T13:22:44.589Z,7.06
2019-03-17T13:25:13.095Z,7.14
2019-03-17T13:27:41.559Z,7.16
2019-03-17T13:30:14.634Z,7.24
2019-03-17T13:32:42.860Z,7.34
2019-03-17T13:35:11.162Z,7.45
2019-03-17T13:37:39.390Z,7.54
2019-03-17T13:40:28.083Z,7.60
2019-03-17T13:42:47.699Z,7.69
2019-03-17T13:45:15.929Z,7.72
2019-03-17T13:47:44.160Z,7.76
2019-03-17T13:50:17.200Z,7.71
2019-03-17T13:52:45.431Z,7.70
2019-03-17T13:55:13.669Z,7.75
2019-03-17T13:57:50.904Z,7.77
2019-03-17T14:00:38.479Z,7.73
2019-03-17T14:03:07.058Z,7.73
2019-03-17T14:05:35.293Z,7.77
2019-03-17T14:08:03.514Z,7.87
2019-03-17T14:10:40.920Z,7.96
2019-03-17T14:13:01.701Z,8.11
2019-03-17T14:15:29.940Z,8.17
2019-03-17T14:17:58.167Z,8.29
2019-03-17T14:20:26.402Z,8.33
2019-03-17T14:22:54.622Z,8.40
2019-03-17T14:25:24.898Z,8.40
2019-03-17T14:27:53.129Z,8.49
2019-03-17T14:30:21.363Z,8.49
2019-03-17T14:32:49.702Z,8.46
2019-03-17T14:35:17.903Z,8.49
2019-03-17T14:37:46.127Z,8.49
2019-03-17T14:40:15.405Z,8.53
2019-03-17T14:42:45.554Z,8.61
2019-03-17T14:45:15.806Z,8.69
2019-03-17T14:47:44.174Z,8.75
2019-03-17T14:50:15.631Z,8.87
2019-03-17T14:52:44.884Z,8.94
2019-03-17T14:55:13.577Z,8.96
2019-03-17T14:57:41.809Z,8.98
2019-03-17T15:00:21.103Z,9.01
2019-03-17T15:02:49.339Z,8.98
2019-03-17T15:05:17.645Z,8.97
2019-03-17T15:07:46.283Z,8.93
2019-03-17T15:10:21.417Z,8.94
2019-03-17T15:12:49.653Z,8.99
2019-03-17T15:15:21.500Z,9.20
2019-03-17T15:17:49.803Z,9.44
2019-03-17T15:20:22.767Z,9.66
2019-03-17T15:22:51.070Z,9.93
2019-03-17T15:25:19.308Z,10.14
2019-03-17T15:27:47.552Z,10.31
2019-03-17T15:30:20.776Z,10.39
2019-03-17T15:32:49.014Z,10.53
2019-03-17T15:35:17.555Z,10.57
2019-03-17T15:37:46.298Z,10.58
2019-03-17T15:40:16.740Z,10.54
2019-03-17T15:42:49.628Z,10.30
2019-03-17T15:45:21.980Z,10.13
2019-03-17T15:47:50.441Z,10.03
2019-03-17T15:50:20.247Z,10.18
2019-03-17T15:52:48.652Z,10.11
2019-03-17T15:55:17.542Z,10.11
2019-03-17T15:57:45.782Z,9.92
2019-03-17T16:00:26.605Z,9.81
2019-03-17T16:02:54.725Z,9.68
2019-03-17T16:05:22.951Z,9.49
2019-03-17T16:07:51.484Z,9.26
2019-03-17T16:10:26.527Z,8.74
2019-03-17T16:12:54.830Z,8.04
2019-03-17T16:15:23.062Z,7.31
2019-03-17T16:17:51.552Z,6.99
2019-03-17T16:20:23.594Z,6.75
2019-03-17T16:22:51.813Z,6.63
2019-03-17T16:25:22.479Z,6.62
2019-03-17T16:27:50.709Z,6.54
2019-03-17T16:30:23.842Z,6.45
2019-03-17T16:32:52.218Z,6.38
2019-03-17T16:35:20.518Z,6.33
2019-03-17T16:37:48.833Z,6.32
2019-03-17T16:40:19.661Z,6.34
2019-03-17T16:42:48.148Z,6.41
2019-03-17T16:45:17.643Z,6.48
2019-03-17T16:47:45.875Z,6.53
2019-03-17T16:50:16.092Z,6.52
2019-03-17T16:52:44.267Z,6.45
2019-03-17T16:55:12.855Z,6.47
2019-03-17T16:57:41.160Z,6.47
2019-03-17T17:00:25.364Z,6.45
2019-03-17T17:02:53.922Z,6.39
2019-03-17T17:05:22.989Z,6.37
2019-03-17T17:07:51.499Z,6.28
2019-03-17T17:10:27.593Z,6.13
2019-03-17T17:12:56.247Z,6.00
2019-03-17T17:15:28.589Z,5.89
2019-03-17T17:17:57.113Z,5.84
2019-03-17T17:20:32.364Z,5.83
2019-03-17T17:23:00.586Z,5.82
2019-03-17T17:25:28.818Z,5.81
2019-03-17T17:27:57.044Z,5.81
2019-03-17T17:30:25.287Z,5.79
2019-03-17T17:32:53.735Z,5.79
2019-03-17T17:35:21.968Z,5.74
2019-03-17T17:37:50.193Z,5.80
2019-03-17T17:40:19.569Z,5.83
2019-03-17T17:42:47.795Z,5.79
2019-03-17T17:45:18.096Z,5.88
2019-03-17T17:47:46.327Z,5.93
2019-03-17T17:50:16.534Z,5.99
2019-03-17T17:52:44.997Z,6.03
2019-03-17T17:55:13.229Z,6.07
2019-03-17T17:57:41.681Z,6.07
2019-03-17T18:00:13.196Z,6.07
2019-03-17T18:02:41.428Z,5.98
2019-03-17T18:05:09.733Z,5.98
2019-03-17T18:07:38.189Z,5.93
2019-03-17T18:10:11.625Z,5.88
2019-03-17T18:12:40.078Z,5.85
2019-03-17T18:15:11.483Z,5.85
2019-03-17T18:17:39.715Z,5.82
2019-03-17T18:20:10.802Z,5.77
2019-03-17T18:22:39.031Z,5.73
2019-03-17T18:25:15.773Z,5.68
2019-03-17T18:27:43.994Z,5.55
2019-03-17T18:30:14.636Z,5.60
2019-03-17T18:32:42.862Z,5.59
2019-03-17T18:35:11.294Z,5.54
2019-03-17T18:37:39.600Z,5.54
2019-03-17T18:40:16.624Z,5.39
2019-03-17T18:42:44.851Z,5.39
2019-03-17T18:45:27.817Z,5.47
2019-03-17T18:47:57.636Z,5.46
2019-03-17T18:50:26.150Z,5.45
2019-03-17T18:52:54.386Z,5.40
2019-03-17T18:55:22.913Z,5.38
2019-03-17T18:57:51.155Z,5.38
2019-03-17T19:00:24.065Z,5.25
2019-03-17T19:02:52.303Z,5.18
2019-03-17T19:05:20.706Z,5.18
2019-03-17T19:07:48.921Z,5.13
2019-03-17T19:10:18.092Z,5.19
2019-03-17T19:12:46.611Z,5.20
2019-03-17T19:15:17.262Z,5.20
2019-03-17T19:17:45.684Z,5.10
2019-03-17T19:20:21.697Z,5.10
2019-03-17T19:22:50.005Z,5.19
2019-03-17T19:25:24.844Z,5.21
2019-03-17T19:27:53.369Z,5.20
2019-03-17T19:30:22.466Z,5.17
2019-03-17T19:32:51.106Z,5.17
2019-03-17T19:35:19.390Z,5.14
2019-03-17T19:37:47.629Z,5.39
2019-03-17T19:40:17.098Z,5.48
2019-03-17T19:42:57.366Z,5.48
2019-03-17T19:45:15.276Z,5.50
2019-03-17T19:47:43.504Z,5.53
2019-03-17T19:50:13.938Z,5.50
2019-03-17T19:52:42.185Z,5.46
2019-03-17T19:55:10.837Z,5.51
2019-03-17T19:57:39.137Z,5.51
2019-03-17T20:00:16.875Z,5.57
2019-03-17T20:02:47.592Z,5.49
2019-03-17T20:05:15.329Z,5.26
2019-03-17T20:07:43.555Z,5.07
2019-03-17T20:10:21.271Z,4.89
2019-03-17T20:12:49.502Z,4.74
2019-03-17T20:15:17.731Z,4.47
2019-03-17T20:17:46.057Z,4.27
2019-03-17T20:20:15.031Z,4.27
2019-03-17T20:22:43.573Z,4.16
2019-03-17T20:25:11.866Z,4.08
2019-03-17T20:27:40.099Z,4.00
2019-03-17T20:30:13.667Z,4.01
2019-03-17T20:32:41.923Z,3.92
2019-03-17T20:35:11.708Z,3.92
2019-03-17T20:37:40.825Z,3.92
2019-03-17T20:40:18.442Z,3.94
2019-03-17T20:42:46.671Z,3.94
2019-03-17T20:45:15.859Z,3.97
2019-03-17T20:47:44.082Z,3.78
2019-03-17T20:50:16.295Z,3.78
2019-03-17T20:52:44.522Z,3.96
2019-03-17T20:55:12.998Z,3.94
2019-03-17T20:57:41.229Z,3.93
2019-03-17T21:00:13.027Z,3.87
2019-03-17T21:02:41.254Z,3.81
2019-03-17T21:05:13.339Z,3.75
2019-03-17T21:07:41.730Z,3.69
2019-03-17T21:10:12.131Z,3.62
2019-03-17T21:12:40.562Z,3.61
2019-03-17T21:15:11.135Z,3.62
2019-03-17T21:17:39.480Z,3.65
2019-03-17T21:20:24.330Z,3.51
2019-03-17T21:22:52.814Z,3.72
2019-03-17T21:25:21.054Z,3.69
2019-03-17T21:27:49.384Z,3.75
2019-03-17T21:30:22.615Z,3.74
2019-03-17T21:32:50.838Z,3.73
2019-03-17T21:35:19.079Z,3.71
2019-03-17T21:37:47.534Z,3.74
2019-03-17T21:40:15.773Z,3.74
2019-03-17T21:42:44.257Z,3.73
2019-03-17T21:45:13.239Z,3.68
2019-03-17T21:47:41.711Z,3.68
2019-03-17T21:50:20.380Z,3.62
2019-03-17T21:52:48.603Z,3.62
2019-03-17T21:55:16.925Z,3.58
2019-03-17T21:57:45.223Z,3.56
2019-03-17T22:00:19.140Z,3.56
2019-03-17T22:02:47.433Z,3.53
2019-03-17T22:05:16.162Z,3.53
2019-03-17T22:07:50.338Z,3.53
2019-03-17T22:10:17.146Z,3.48
2019-03-17T22:12:45.431Z,3.47
2019-03-17T22:15:14.643Z,3.42
2019-03-17T22:17:43.102Z,3.41
2019-03-17T22:20:12.790Z,3.40
2019-03-17T22:22:41.034Z,3.40
2019-03-17T22:25:11.362Z,3.43
2019-03-17T22:27:39.823Z,3.42
2019-03-17T22:30:10.966Z,3.44
2019-03-17T22:32:39.270Z,3.44
2019-03-17T22:35:09.140Z,3.42
2019-03-17T22:37:37.642Z,3.39
2019-03-17T22:40:09.043Z,3.39
2019-03-17T22:42:37.278Z,3.40
2019-03-17T22:45:08.247Z,3.36
2019-03-17T22:47:36.482Z,3.31
2019-03-17T22:50:07.453Z,3.24
2019-03-17T22:52:35.691Z,3.04
2019-03-17T22:55:05.257Z,3.07
2019-03-17T22:57:33.493Z,3.05
2019-03-17T23:00:01.724Z,2.87
2019-03-17T23:02:29.962Z,2.95
2019-03-17T23:04:58.188Z,2.91
2019-03-17T23:07:26.424Z,2.81
2019-03-17T23:09:54.658Z,2.78
2019-03-17T23:12:23.169Z,2.78
2019-03-17T23:14:51.674Z,2.65
2019-03-17T23:17:19.915Z,2.58
2019-03-17T23:19:48.437Z,2.58
2019-03-17T23:22:16.673Z,2.66
2019-03-17T23:24:45.397Z,2.63
2019-03-17T23:27:13.636Z,2.59
2019-03-17T23:29:41.967Z,2.57
2019-03-17T23:32:10.657Z,2.56
2019-03-17T23:34:38.893Z,2.55
2019-03-17T23:37:07.110Z,2.56
2019-03-17T23:39:35.348Z,2.53
2019-03-17T23:42:03.573Z,2.54
2019-03-17T23:44:32.130Z,2.56
2019-03-17T23:47:00.358Z,2.57
2019-03-17T23:49:28.593Z,2.57
2019-03-17T23:51:57.070Z,2.56
2019-03-17T23:54:25.299Z,2.56
2019-03-17T23:56:53.526Z,2.50
2019-03-17T23:59:21.763Z,2.50
